sensor_id;sensor_type;location;lat;lon;timestamp;P1;durP1;ratioP1;P2;durP2;ratioP2
31114;SDS011;17764;47.152;9.828;2022-08-02T00:01:22;0.57;;;0.50;;
31114;SDS011;17764;47.152;9.828;2022-08-02T00:03:48;0.70;;;0.50;;
31114;SDS011;17764;47.152;9.828;2022-08-02T00:06:14;0.60;;;0.55;;
31114;SDS011;17764;47.152;9.828;2022-08-02T00:08:40;0.57;;;0.57;;
31114;SDS011;17764;47.152;9.828;2022-08-02T00:11:06;0.75;;;0.40;;
31114;SDS011;17764;47.152;9.828;2022-08-02T00:13:32;0.98;;;0.52;;
31114;SDS011;17764;47.152;9.828;2022-08-02T00:15:58;0.85;;;0.40;;
31114;SDS011;17764;47.152;9.828;2022-08-02T00:18:24;0.77;;;0.40;;
31114;SDS011;17764;47.152;9.828;2022-08-02T00:20:50;0.63;;;0.52;;
31114;SDS011;17764;47.152;9.828;2022-08-02T00:23:16;1.35;;;0.50;;
31114;SDS011;17764;47.152;9.828;2022-08-02T00:25:42;0.93;;;0.40;;
31114;SDS011;17764;47.152;9.828;2022-08-02T00:28:07;0.77;;;0.60;;
31114;SDS011;17764;47.152;9.828;2022-08-02T00:30:35;0.45;;;0.40;;
31114;SDS011;17764;47.152;9.828;2022-08-02T00:33:01;2.45;;;0.50;;
31114;SDS011;17764;47.152;9.828;2022-08-02T00:35:29;0.40;;;0.40;;
31114;SDS011;17764;47.152;9.828;2022-08-02T00:37:55;0.95;;;0.50;;
31114;SDS011;17764;47.152;9.828;2022-08-02T00:40:21;0.73;;;0.52;;
31114;SDS011;17764;47.152;9.828;2022-08-02T00:43:02;1.48;;;0.50;;
31114;SDS011;17764;47.152;9.828;2022-08-02T00:45:32;0.63;;;0.50;;
31114;SDS011;17764;47.152;9.828;2022-08-02T00:47:59;1.33;;;0.65;;
31114;SDS011;17764;47.152;9.828;2022-08-02T00:50:25;0.77;;;0.50;;
31114;SDS011;17764;47.152;9.828;2022-08-02T00:52:51;0.40;;;0.35;;
31114;SDS011;17764;47.152;9.828;2022-08-02T00:55:18;2.17;;;0.47;;
31114;SDS011;17764;47.152;9.828;2022-08-02T00:57:44;1.02;;;0.40;;
31114;SDS011;17764;47.152;9.828;2022-08-02T01:00:10;0.60;;;0.50;;
31114;SDS011;17764;47.152;9.828;2022-08-02T01:02:36;0.80;;;0.60;;
31114;SDS011;17764;47.152;9.828;2022-08-02T01:05:02;0.40;;;0.40;;
31114;SDS011;17764;47.152;9.828;2022-08-02T01:07:28;0.95;;;0.40;;
31114;SDS011;17764;47.152;9.828;2022-08-02T01:09:55;1.15;;;0.30;;
31114;SDS011;17764;47.152;9.828;2022-08-02T01:12:21;0.80;;;0.40;;
31114;SDS011;17764;47.152;9.828;2022-08-02T01:14:49;0.88;;;0.43;;
31114;SDS011;17764;47.152;9.828;2022-08-02T01:30:27;1.73;;;0.40;;
31114;SDS011;17764;47.152;9.828;2022-08-02T01:32:55;0.50;;;0.30;;
31114;SDS011;17764;47.152;9.828;2022-08-02T01:35:27;0.60;;;0.40;;
31114;SDS011;17764;47.152;9.828;2022-08-02T01:38:06;0.30;;;0.30;;
31114;SDS011;17764;47.152;9.828;2022-08-02T01:40:35;0.95;;;0.40;;
31114;SDS011;17764;47.152;9.828;2022-08-02T01:43:02;2.15;;;0.50;;
31114;SDS011;17764;47.152;9.828;2022-08-02T01:45:29;1.05;;;0.40;;
31114;SDS011;17764;47.152;9.828;2022-08-02T01:47:58;0.35;;;0.30;;
31114;SDS011;17764;47.152;9.828;2022-08-02T01:50:34;0.50;;;0.40;;
31114;SDS011;17764;47.152;9.828;2022-08-02T01:53:04;0.55;;;0.43;;
31114;SDS011;17764;47.152;9.828;2022-08-02T01:55:31;0.82;;;0.40;;
31114;SDS011;17764;47.152;9.828;2022-08-02T01:58:00;1.00;;;0.60;;
31114;SDS011;17764;47.152;9.828;2022-08-02T02:00:29;0.68;;;0.40;;
31114;SDS011;17764;47.152;9.828;2022-08-02T02:02:56;2.55;;;0.60;;
31114;SDS011;17764;47.152;9.828;2022-08-02T02:05:24;0.40;;;0.40;;
31114;SDS011;17764;47.152;9.828;2022-08-02T02:07:54;0.80;;;0.50;;
31114;SDS011;17764;47.152;9.828;2022-08-02T02:10:24;1.23;;;0.35;;
31114;SDS011;17764;47.152;9.828;2022-08-02T02:12:52;0.52;;;0.40;;
31114;SDS011;17764;47.152;9.828;2022-08-02T02:15:19;1.65;;;0.30;;
31114;SDS011;17764;47.152;9.828;2022-08-02T02:17:48;1.05;;;0.30;;
31114;SDS011;17764;47.152;9.828;2022-08-02T02:20:17;0.40;;;0.40;;
31114;SDS011;17764;47.152;9.828;2022-08-02T02:22:44;0.47;;;0.32;;
31114;SDS011;17764;47.152;9.828;2022-08-02T02:25:12;0.45;;;0.40;;
31114;SDS011;17764;47.152;9.828;2022-08-02T02:27:46;0.57;;;0.40;;
31114;SDS011;17764;47.152;9.828;2022-08-02T02:30:13;0.40;;;0.40;;
31114;SDS011;17764;47.152;9.828;2022-08-02T02:32:41;0.20;;;0.20;;
31114;SDS011;17764;47.152;9.828;2022-08-02T02:35:09;0.40;;;0.30;;
31114;SDS011;17764;47.152;9.828;2022-08-02T02:37:37;0.80;;;0.47;;
31114;SDS011;17764;47.152;9.828;2022-08-02T02:40:06;0.70;;;0.40;;
31114;SDS011;17764;47.152;9.828;2022-08-02T02:42:33;2.10;;;0.50;;
31114;SDS011;17764;47.152;9.828;2022-08-02T02:44:59;0.22;;;0.22;;
31114;SDS011;17764;47.152;9.828;2022-08-02T02:47:27;0.60;;;0.35;;
31114;SDS011;17764;47.152;9.828;2022-08-02T02:49:54;0.45;;;0.40;;
31114;SDS011;17764;47.152;9.828;2022-08-02T02:52:21;1.50;;;0.52;;
31114;SDS011;17764;47.152;9.828;2022-08-02T02:54:48;1.33;;;0.60;;
31114;SDS011;17764;47.152;9.828;2022-08-02T02:57:15;0.85;;;0.50;;
31114;SDS011;17764;47.152;9.828;2022-08-02T02:59:42;0.70;;;0.38;;
31114;SDS011;17764;47.152;9.828;2022-08-02T03:02:09;0.82;;;0.50;;
31114;SDS011;17764;47.152;9.828;2022-08-02T03:04:35;0.57;;;0.30;;
31114;SDS011;17764;47.152;9.828;2022-08-02T03:07:02;0.82;;;0.30;;
31114;SDS011;17764;47.152;9.828;2022-08-02T03:09:28;0.32;;;0.30;;
31114;SDS011;17764;47.152;9.828;2022-08-02T03:11:54;0.88;;;0.30;;
31114;SDS011;17764;47.152;9.828;2022-08-02T03:14:21;0.70;;;0.43;;
31114;SDS011;17764;47.152;9.828;2022-08-02T03:16:48;1.35;;;0.47;;
31114;SDS011;17764;47.152;9.828;2022-08-02T03:19:14;1.55;;;0.80;;
31114;SDS011;17764;47.152;9.828;2022-08-02T03:21:41;1.63;;;1.00;;
31114;SDS011;17764;47.152;9.828;2022-08-02T03:24:08;0.98;;;0.80;;
31114;SDS011;17764;47.152;9.828;2022-08-02T03:26:34;0.77;;;0.52;;
31114;SDS011;17764;47.152;9.828;2022-08-02T03:29:01;0.50;;;0.40;;
31114;SDS011;17764;47.152;9.828;2022-08-02T03:31:27;0.93;;;0.50;;
31114;SDS011;17764;47.152;9.828;2022-08-02T03:33:54;0.40;;;0.40;;
31114;SDS011;17764;47.152;9.828;2022-08-02T03:36:20;0.50;;;0.50;;
31114;SDS011;17764;47.152;9.828;2022-08-02T03:38:48;0.95;;;0.50;;
31114;SDS011;17764;47.152;9.828;2022-08-02T03:41:15;0.75;;;0.50;;
31114;SDS011;17764;47.152;9.828;2022-08-02T03:43:44;0.60;;;0.45;;
31114;SDS011;17764;47.152;9.828;2022-08-02T03:46:12;2.03;;;0.40;;
31114;SDS011;17764;47.152;9.828;2022-08-02T03:48:39;1.92;;;0.55;;
31114;SDS011;17764;47.152;9.828;2022-08-02T03:51:05;1.10;;;0.45;;
31114;SDS011;17764;47.152;9.828;2022-08-02T03:53:31;0.47;;;0.47;;
31114;SDS011;17764;47.152;9.828;2022-08-02T03:55:58;0.63;;;0.47;;
31114;SDS011;17764;47.152;9.828;2022-08-02T03:58:24;0.57;;;0.47;;
31114;SDS011;17764;47.152;9.828;2022-08-02T04:00:53;0.55;;;0.50;;
31114;SDS011;17764;47.152;9.828;2022-08-02T04:03:19;0.70;;;0.40;;
31114;SDS011;17764;47.152;9.828;2022-08-02T04:05:45;0.63;;;0.40;;
31114;SDS011;17764;47.152;9.828;2022-08-02T04:08:11;0.75;;;0.40;;
31114;SDS011;17764;47.152;9.828;2022-08-02T04:10:37;0.60;;;0.40;;
31114;SDS011;17764;47.152;9.828;2022-08-02T04:13:27;2.22;;;0.88;;
31114;SDS011;17764;47.152;9.828;2022-08-02T04:15:55;1.10;;;0.73;;
31114;SDS011;17764;47.152;9.828;2022-08-02T04:18:23;0.90;;;0.50;;
31114;SDS011;17764;47.152;9.828;2022-08-02T04:20:50;0.40;;;0.40;;
31114;SDS011;17764;47.152;9.828;2022-08-02T04:23:17;0.47;;;0.32;;
31114;SDS011;17764;47.152;9.828;2022-08-02T04:25:43;0.20;;;0.20;;
31114;SDS011;17764;47.152;9.828;2022-08-02T04:28:10;0.60;;;0.40;;
31114;SDS011;17764;47.152;9.828;2022-08-02T04:30:37;1.05;;;0.47;;
31114;SDS011;17764;47.152;9.828;2022-08-02T04:33:04;1.15;;;0.52;;
31114;SDS011;17764;47.152;9.828;2022-08-02T04:35:30;0.45;;;0.30;;
31114;SDS011;17764;47.152;9.828;2022-08-02T04:37:56;0.95;;;0.45;;
31114;SDS011;17764;47.152;9.828;2022-08-02T04:40:22;0.40;;;0.40;;
31114;SDS011;17764;47.152;9.828;2022-08-02T04:42:48;0.93;;;0.70;;
31114;SDS011;17764;47.152;9.828;2022-08-02T04:45:14;1.20;;;0.80;;
31114;SDS011;17764;47.152;9.828;2022-08-02T04:47:41;1.25;;;0.60;;
31114;SDS011;17764;47.152;9.828;2022-08-02T04:50:07;0.70;;;0.50;;
31114;SDS011;17764;47.152;9.828;2022-08-02T04:52:33;1.95;;;0.75;;
31114;SDS011;17764;47.152;9.828;2022-08-02T04:55:00;1.77;;;0.43;;
31114;SDS011;17764;47.152;9.828;2022-08-02T04:57:26;1.25;;;0.50;;
31114;SDS011;17764;47.152;9.828;2022-08-02T05:00:10;0.45;;;0.45;;
31114;SDS011;17764;47.152;9.828;2022-08-02T05:02:37;0.40;;;0.40;;
31114;SDS011;17764;47.152;9.828;2022-08-02T05:05:03;0.73;;;0.43;;
31114;SDS011;17764;47.152;9.828;2022-08-02T05:07:29;0.95;;;0.47;;
31114;SDS011;17764;47.152;9.828;2022-08-02T05:09:55;0.70;;;0.50;;
31114;SDS011;17764;47.152;9.828;2022-08-02T05:12:21;1.15;;;0.60;;
31114;SDS011;17764;47.152;9.828;2022-08-02T05:14:48;0.32;;;0.30;;
31114;SDS011;17764;47.152;9.828;2022-08-02T05:17:14;0.40;;;0.40;;
31114;SDS011;17764;47.152;9.828;2022-08-02T05:19:40;0.60;;;0.60;;
31114;SDS011;17764;47.152;9.828;2022-08-02T05:22:06;1.38;;;0.50;;
31114;SDS011;17764;47.152;9.828;2022-08-02T05:24:32;0.50;;;0.40;;
31114;SDS011;17764;47.152;9.828;2022-08-02T05:26:58;1.05;;;0.50;;
31114;SDS011;17764;47.152;9.828;2022-08-02T05:29:24;1.73;;;0.60;;
31114;SDS011;17764;47.152;9.828;2022-08-02T05:31:50;1.50;;;0.63;;
31114;SDS011;17764;47.152;9.828;2022-08-02T05:34:16;0.55;;;0.50;;
31114;SDS011;17764;47.152;9.828;2022-08-02T05:36:42;0.90;;;0.40;;
31114;SDS011;17764;47.152;9.828;2022-08-02T05:39:08;0.50;;;0.50;;
31114;SDS011;17764;47.152;9.828;2022-08-02T05:41:34;0.90;;;0.70;;
31114;SDS011;17764;47.152;9.828;2022-08-02T05:44:01;0.90;;;0.50;;
31114;SDS011;17764;47.152;9.828;2022-08-02T05:46:27;1.90;;;0.43;;
31114;SDS011;17764;47.152;9.828;2022-08-02T05:48:53;1.02;;;0.75;;
31114;SDS011;17764;47.152;9.828;2022-08-02T05:51:25;0.68;;;0.50;;
31114;SDS011;17764;47.152;9.828;2022-08-02T05:53:59;0.98;;;0.63;;
31114;SDS011;17764;47.152;9.828;2022-08-02T05:56:40;0.70;;;0.60;;
31114;SDS011;17764;47.152;9.828;2022-08-02T06:01:39;0.63;;;0.50;;
31114;SDS011;17764;47.152;9.828;2022-08-02T06:04:08;0.88;;;0.60;;
31114;SDS011;17764;47.152;9.828;2022-08-02T06:06:35;0.98;;;0.60;;
31114;SDS011;17764;47.152;9.828;2022-08-02T06:09:22;0.75;;;0.40;;
31114;SDS011;17764;47.152;9.828;2022-08-02T06:11:49;1.02;;;0.50;;
31114;SDS011;17764;47.152;9.828;2022-08-02T06:14:17;1.02;;;0.60;;
31114;SDS011;17764;47.152;9.828;2022-08-02T06:16:43;0.77;;;0.57;;
31114;SDS011;17764;47.152;9.828;2022-08-02T06:19:12;0.80;;;0.52;;
31114;SDS011;17764;47.152;9.828;2022-08-02T06:21:42;1.08;;;0.50;;
31114;SDS011;17764;47.152;9.828;2022-08-02T06:24:09;1.02;;;0.63;;
31114;SDS011;17764;47.152;9.828;2022-08-02T06:26:35;1.40;;;1.05;;
31114;SDS011;17764;47.152;9.828;2022-08-02T06:29:02;2.00;;;1.20;;
31114;SDS011;17764;47.152;9.828;2022-08-02T06:31:28;2.15;;;1.15;;
31114;SDS011;17764;47.152;9.828;2022-08-02T06:33:55;1.60;;;0.88;;
31114;SDS011;17764;47.152;9.828;2022-08-02T06:39:11;1.15;;;0.68;;
31114;SDS011;17764;47.152;9.828;2022-08-02T06:41:39;0.77;;;0.63;;
31114;SDS011;17764;47.152;9.828;2022-08-02T06:44:06;1.17;;;0.52;;
31114;SDS011;17764;47.152;9.828;2022-08-02T06:46:33;1.00;;;0.85;;
31114;SDS011;17764;47.152;9.828;2022-08-02T06:48:59;0.95;;;0.60;;
31114;SDS011;17764;47.152;9.828;2022-08-02T06:51:25;0.60;;;0.60;;
31114;SDS011;17764;47.152;9.828;2022-08-02T06:53:51;0.50;;;0.50;;
31114;SDS011;17764;47.152;9.828;2022-08-02T06:56:18;1.75;;;0.70;;
31114;SDS011;17764;47.152;9.828;2022-08-02T06:58:44;0.70;;;0.60;;
31114;SDS011;17764;47.152;9.828;2022-08-02T07:01:10;1.40;;;0.50;;
31114;SDS011;17764;47.152;9.828;2022-08-02T07:03:36;1.05;;;0.70;;
31114;SDS011;17764;47.152;9.828;2022-08-02T07:06:03;1.00;;;0.70;;
31114;SDS011;17764;47.152;9.828;2022-08-02T07:08:30;2.03;;;0.70;;
31114;SDS011;17764;47.152;9.828;2022-08-02T07:10:59;0.80;;;0.60;;
31114;SDS011;17764;47.152;9.828;2022-08-02T07:13:25;0.90;;;0.70;;
31114;SDS011;17764;47.152;9.828;2022-08-02T07:15:52;1.15;;;0.60;;
31114;SDS011;17764;47.152;9.828;2022-08-02T07:18:18;0.90;;;0.70;;
31114;SDS011;17764;47.152;9.828;2022-08-02T07:20:44;3.10;;;0.70;;
31114;SDS011;17764;47.152;9.828;2022-08-02T07:23:10;0.63;;;0.63;;
31114;SDS011;17764;47.152;9.828;2022-08-02T07:25:36;1.17;;;0.80;;
31114;SDS011;17764;47.152;9.828;2022-08-02T07:28:03;0.85;;;0.60;;
31114;SDS011;17764;47.152;9.828;2022-08-02T07:30:29;1.73;;;0.70;;
31114;SDS011;17764;47.152;9.828;2022-08-02T07:32:57;2.58;;;0.77;;
31114;SDS011;17764;47.152;9.828;2022-08-02T07:35:23;1.80;;;0.90;;
31114;SDS011;17764;47.152;9.828;2022-08-02T07:37:49;1.15;;;0.70;;
31114;SDS011;17764;47.152;9.828;2022-08-02T07:40:15;1.60;;;0.70;;
31114;SDS011;17764;47.152;9.828;2022-08-02T07:42:41;1.02;;;0.75;;
31114;SDS011;17764;47.152;9.828;2022-08-02T07:45:07;1.98;;;0.77;;
31114;SDS011;17764;47.152;9.828;2022-08-02T07:47:37;1.17;;;0.65;;
31114;SDS011;17764;47.152;9.828;2022-08-02T07:50:04;0.70;;;0.60;;
31114;SDS011;17764;47.152;9.828;2022-08-02T07:52:30;1.95;;;0.90;;
31114;SDS011;17764;47.152;9.828;2022-08-02T07:54:56;1.52;;;0.80;;
31114;SDS011;17764;47.152;9.828;2022-08-02T07:57:22;1.23;;;0.70;;
31114;SDS011;17764;47.152;9.828;2022-08-02T07:59:49;2.53;;;0.93;;
31114;SDS011;17764;47.152;9.828;2022-08-02T08:02:15;0.82;;;0.70;;
31114;SDS011;17764;47.152;9.828;2022-08-02T08:04:42;2.10;;;0.70;;
31114;SDS011;17764;47.152;9.828;2022-08-02T08:07:07;3.10;;;0.80;;
31114;SDS011;17764;47.152;9.828;2022-08-02T08:09:35;0.93;;;0.57;;
31114;SDS011;17764;47.152;9.828;2022-08-02T08:12:06;0.90;;;0.70;;
31114;SDS011;17764;47.152;9.828;2022-08-02T08:14:33;1.98;;;0.77;;
31114;SDS011;17764;47.152;9.828;2022-08-02T08:16:59;0.65;;;0.60;;
31114;SDS011;17764;47.152;9.828;2022-08-02T08:19:25;1.27;;;1.05;;
31114;SDS011;17764;47.152;9.828;2022-08-02T08:21:51;1.00;;;0.90;;
31114;SDS011;17764;47.152;9.828;2022-08-02T08:24:17;0.82;;;0.80;;
31114;SDS011;17764;47.152;9.828;2022-08-02T08:26:43;2.00;;;0.80;;
31114;SDS011;17764;47.152;9.828;2022-08-02T08:29:09;1.10;;;0.95;;
31114;SDS011;17764;47.152;9.828;2022-08-02T08:31:35;0.90;;;0.82;;
31114;SDS011;17764;47.152;9.828;2022-08-02T08:34:02;1.55;;;0.90;;
31114;SDS011;17764;47.152;9.828;2022-08-02T08:36:28;2.20;;;0.90;;
31114;SDS011;17764;47.152;9.828;2022-08-02T08:38:55;1.20;;;0.93;;
31114;SDS011;17764;47.152;9.828;2022-08-02T08:41:21;1.17;;;0.82;;
31114;SDS011;17764;47.152;9.828;2022-08-02T08:43:46;2.50;;;0.82;;
31114;SDS011;17764;47.152;9.828;2022-08-02T08:46:17;1.80;;;1.05;;
31114;SDS011;17764;47.152;9.828;2022-08-02T08:48:50;1.88;;;1.20;;
31114;SDS011;17764;47.152;9.828;2022-08-02T08:51:18;1.92;;;1.00;;
31114;SDS011;17764;47.152;9.828;2022-08-02T08:53:46;1.20;;;0.93;;
31114;SDS011;17764;47.152;9.828;2022-08-02T08:56:14;1.38;;;1.20;;
31114;SDS011;17764;47.152;9.828;2022-08-02T08:58:40;2.78;;;0.90;;
31114;SDS011;17764;47.152;9.828;2022-08-02T09:01:08;1.13;;;1.02;;
31114;SDS011;17764;47.152;9.828;2022-08-02T09:03:34;2.53;;;1.20;;
31114;SDS011;17764;47.152;9.828;2022-08-02T09:06:01;1.58;;;1.20;;
31114;SDS011;17764;47.152;9.828;2022-08-02T09:08:27;1.77;;;1.30;;
31114;SDS011;17764;47.152;9.828;2022-08-02T09:10:53;1.90;;;1.05;;
31114;SDS011;17764;47.152;9.828;2022-08-02T09:13:26;1.52;;;1.20;;
31114;SDS011;17764;47.152;9.828;2022-08-02T09:15:59;3.38;;;1.50;;
31114;SDS011;17764;47.152;9.828;2022-08-02T09:20:59;1.38;;;1.20;;
31114;SDS011;17764;47.152;9.828;2022-08-02T09:23:37;3.15;;;1.20;;
31114;SDS011;17764;47.152;9.828;2022-08-02T09:26:08;2.90;;;1.10;;
31114;SDS011;17764;47.152;9.828;2022-08-02T09:28:45;3.30;;;1.40;;
31114;SDS011;17764;47.152;9.828;2022-08-02T09:31:15;1.95;;;1.00;;
31114;SDS011;17764;47.152;9.828;2022-08-02T09:33:43;2.05;;;1.33;;
31114;SDS011;17764;47.152;9.828;2022-08-02T09:36:10;1.20;;;1.10;;
31114;SDS011;17764;47.152;9.828;2022-08-02T09:38:38;0.93;;;0.88;;
31114;SDS011;17764;47.152;9.828;2022-08-02T09:41:06;1.70;;;1.10;;
31114;SDS011;17764;47.152;9.828;2022-08-02T09:43:44;1.20;;;1.10;;
31114;SDS011;17764;47.152;9.828;2022-08-02T09:46:13;2.25;;;1.08;;
31114;SDS011;17764;47.152;9.828;2022-08-02T09:51:11;2.28;;;1.10;;
31114;SDS011;17764;47.152;9.828;2022-08-02T09:53:37;1.45;;;1.20;;
31114;SDS011;17764;47.152;9.828;2022-08-02T09:56:03;1.15;;;1.05;;
31114;SDS011;17764;47.152;9.828;2022-08-02T09:58:29;3.92;;;1.40;;
31114;SDS011;17764;47.152;9.828;2022-08-02T10:00:56;1.50;;;1.20;;
31114;SDS011;17764;47.152;9.828;2022-08-02T10:03:25;1.33;;;1.10;;
31114;SDS011;17764;47.152;9.828;2022-08-02T10:05:52;1.10;;;1.00;;
31114;SDS011;17764;47.152;9.828;2022-08-02T10:08:18;1.17;;;1.05;;
31114;SDS011;17764;47.152;9.828;2022-08-02T10:10:45;1.73;;;1.00;;
31114;SDS011;17764;47.152;9.828;2022-08-02T10:13:12;1.48;;;1.20;;
31114;SDS011;17764;47.152;9.828;2022-08-02T10:15:39;1.70;;;1.08;;
31114;SDS011;17764;47.152;9.828;2022-08-02T10:18:06;2.25;;;0.85;;
31114;SDS011;17764;47.152;9.828;2022-08-02T10:20:39;2.53;;;1.00;;
31114;SDS011;17764;47.152;9.828;2022-08-02T10:23:09;2.95;;;1.00;;
31114;SDS011;17764;47.152;9.828;2022-08-02T10:25:36;1.42;;;1.10;;
31114;SDS011;17764;47.152;9.828;2022-08-02T10:28:03;3.22;;;1.00;;
31114;SDS011;17764;47.152;9.828;2022-08-02T10:30:29;2.05;;;1.10;;
31114;SDS011;17764;47.152;9.828;2022-08-02T10:32:56;2.78;;;0.90;;
31114;SDS011;17764;47.152;9.828;2022-08-02T10:35:24;1.50;;;1.10;;
31114;SDS011;17764;47.152;9.828;2022-08-02T10:37:54;2.20;;;1.27;;
31114;SDS011;17764;47.152;9.828;2022-08-02T10:40:22;1.60;;;1.20;;
31114;SDS011;17764;47.152;9.828;2022-08-02T10:42:56;1.10;;;0.98;;
31114;SDS011;17764;47.152;9.828;2022-08-02T10:45:25;1.83;;;1.25;;
31114;SDS011;17764;47.152;9.828;2022-08-02T10:48:06;1.48;;;1.08;;
31114;SDS011;17764;47.152;9.828;2022-08-02T10:55:49;1.65;;;1.20;;
31114;SDS011;17764;47.152;9.828;2022-08-02T10:58:16;2.17;;;1.17;;
31114;SDS011;17764;47.152;9.828;2022-08-02T11:00:46;1.17;;;1.05;;
31114;SDS011;17764;47.152;9.828;2022-08-02T11:03:46;1.85;;;0.90;;
31114;SDS011;17764;47.152;9.828;2022-08-02T11:06:09;1.15;;;0.70;;
31114;SDS011;17764;47.152;9.828;2022-08-02T11:08:37;2.10;;;0.90;;
31114;SDS011;17764;47.152;9.828;2022-08-02T11:16:20;2.45;;;0.90;;
31114;SDS011;17764;47.152;9.828;2022-08-02T11:21:21;2.35;;;1.00;;
31114;SDS011;17764;47.152;9.828;2022-08-02T11:23:48;1.08;;;0.80;;
31114;SDS011;17764;47.152;9.828;2022-08-02T11:28:58;0.80;;;0.70;;
31114;SDS011;17764;47.152;9.828;2022-08-02T11:31:25;1.33;;;0.90;;
31114;SDS011;17764;47.152;9.828;2022-08-02T11:33:51;1.17;;;1.00;;
31114;SDS011;17764;47.152;9.828;2022-08-02T11:36:17;1.80;;;0.98;;
31114;SDS011;17764;47.152;9.828;2022-08-02T11:38:43;2.05;;;0.90;;
31114;SDS011;17764;47.152;9.828;2022-08-02T11:41:17;1.33;;;0.90;;
31114;SDS011;17764;47.152;9.828;2022-08-02T11:43:43;0.90;;;0.90;;
31114;SDS011;17764;47.152;9.828;2022-08-02T11:46:13;1.13;;;0.90;;
31114;SDS011;17764;47.152;9.828;2022-08-02T11:48:40;1.75;;;1.05;;
31114;SDS011;17764;47.152;9.828;2022-08-02T11:53:40;3.03;;;1.10;;
31114;SDS011;17764;47.152;9.828;2022-08-02T11:56:11;2.80;;;1.30;;
31114;SDS011;17764;47.152;9.828;2022-08-02T11:58:38;2.00;;;1.35;;
31114;SDS011;17764;47.152;9.828;2022-08-02T12:01:04;1.55;;;1.23;;
31114;SDS011;17764;47.152;9.828;2022-08-02T12:03:37;1.90;;;1.10;;
31114;SDS011;17764;47.152;9.828;2022-08-02T12:06:04;1.83;;;1.20;;
31114;SDS011;17764;47.152;9.828;2022-08-02T12:08:35;3.67;;;1.30;;
31114;SDS011;17764;47.152;9.828;2022-08-02T12:11:02;3.38;;;1.45;;
31114;SDS011;17764;47.152;9.828;2022-08-02T12:13:40;1.42;;;1.20;;
31114;SDS011;17764;47.152;9.828;2022-08-02T12:16:12;3.22;;;1.35;;
31114;SDS011;17764;47.152;9.828;2022-08-02T12:18:57;1.75;;;1.20;;
31114;SDS011;17764;47.152;9.828;2022-08-02T12:21:42;1.25;;;1.10;;
31114;SDS011;17764;47.152;9.828;2022-08-02T12:24:07;1.48;;;1.30;;
31114;SDS011;17764;47.152;9.828;2022-08-02T12:26:41;3.90;;;1.60;;
31114;SDS011;17764;47.152;9.828;2022-08-02T12:29:07;1.83;;;1.20;;
31114;SDS011;17764;47.152;9.828;2022-08-02T12:31:41;1.20;;;1.10;;
31114;SDS011;17764;47.152;9.828;2022-08-02T12:34:11;1.30;;;1.20;;
31114;SDS011;17764;47.152;9.828;2022-08-02T12:36:39;1.63;;;1.23;;
31114;SDS011;17764;47.152;9.828;2022-08-02T12:39:09;2.00;;;1.48;;
31114;SDS011;17764;47.152;9.828;2022-08-02T12:41:39;2.75;;;1.42;;
31114;SDS011;17764;47.152;9.828;2022-08-02T12:44:13;1.92;;;1.20;;
31114;SDS011;17764;47.152;9.828;2022-08-02T12:46:39;2.45;;;1.30;;
31114;SDS011;17764;47.152;9.828;2022-08-02T12:49:15;2.22;;;1.33;;
31114;SDS011;17764;47.152;9.828;2022-08-02T12:51:44;2.03;;;1.25;;
31114;SDS011;17764;47.152;9.828;2022-08-02T12:54:15;2.70;;;1.40;;
31114;SDS011;17764;47.152;9.828;2022-08-02T12:56:42;1.30;;;1.20;;
31114;SDS011;17764;47.152;9.828;2022-08-02T12:59:08;3.58;;;1.20;;
31114;SDS011;17764;47.152;9.828;2022-08-02T13:01:34;1.95;;;1.02;;
31114;SDS011;17764;47.152;9.828;2022-08-02T13:04:00;1.50;;;1.40;;
31114;SDS011;17764;47.152;9.828;2022-08-02T13:06:26;2.95;;;1.48;;
31114;SDS011;17764;47.152;9.828;2022-08-02T13:08:52;2.10;;;1.30;;
31114;SDS011;17764;47.152;9.828;2022-08-02T13:11:22;3.38;;;1.20;;
31114;SDS011;17764;47.152;9.828;2022-08-02T13:13:49;3.17;;;1.20;;
31114;SDS011;17764;47.152;9.828;2022-08-02T13:16:15;1.77;;;1.50;;
31114;SDS011;17764;47.152;9.828;2022-08-02T13:18:41;1.27;;;1.17;;
31114;SDS011;17764;47.152;9.828;2022-08-02T13:21:09;2.17;;;1.42;;
31114;SDS011;17764;47.152;9.828;2022-08-02T13:23:35;2.55;;;1.30;;
31114;SDS011;17764;47.152;9.828;2022-08-02T13:26:02;1.42;;;1.30;;
31114;SDS011;17764;47.152;9.828;2022-08-02T13:28:28;1.45;;;1.33;;
31114;SDS011;17764;47.152;9.828;2022-08-02T13:30:54;1.85;;;0.98;;
31114;SDS011;17764;47.152;9.828;2022-08-02T13:33:20;1.45;;;1.20;;
31114;SDS011;17764;47.152;9.828;2022-08-02T13:35:46;2.80;;;1.63;;
31114;SDS011;17764;47.152;9.828;2022-08-02T13:38:13;2.97;;;1.73;;
31114;SDS011;17764;47.152;9.828;2022-08-02T13:40:39;1.73;;;1.23;;
31114;SDS011;17764;47.152;9.828;2022-08-02T13:43:23;2.70;;;1.10;;
31114;SDS011;17764;47.152;9.828;2022-08-02T13:45:49;6.03;;;1.40;;
31114;SDS011;17764;47.152;9.828;2022-08-02T13:48:15;3.55;;;1.63;;
31114;SDS011;17764;47.152;9.828;2022-08-02T13:50:41;2.03;;;1.20;;
31114;SDS011;17764;47.152;9.828;2022-08-02T13:53:07;2.38;;;1.38;;
31114;SDS011;17764;47.152;9.828;2022-08-02T13:55:33;2.55;;;1.40;;
31114;SDS011;17764;47.152;9.828;2022-08-02T13:57:59;3.38;;;1.60;;
31114;SDS011;17764;47.152;9.828;2022-08-02T14:00:25;3.65;;;1.60;;
31114;SDS011;17764;47.152;9.828;2022-08-02T14:02:51;2.30;;;1.50;;
31114;SDS011;17764;47.152;9.828;2022-08-02T14:05:17;1.95;;;1.27;;
31114;SDS011;17764;47.152;9.828;2022-08-02T14:07:43;4.38;;;1.60;;
31114;SDS011;17764;47.152;9.828;2022-08-02T14:10:09;1.60;;;1.27;;
31114;SDS011;17764;47.152;9.828;2022-08-02T14:12:35;2.20;;;1.50;;
31114;SDS011;17764;47.152;9.828;2022-08-02T14:15:01;3.33;;;1.50;;
31114;SDS011;17764;47.152;9.828;2022-08-02T14:17:27;1.63;;;1.30;;
31114;SDS011;17764;47.152;9.828;2022-08-02T14:19:53;1.92;;;1.23;;
31114;SDS011;17764;47.152;9.828;2022-08-02T14:22:19;3.75;;;1.30;;
31114;SDS011;17764;47.152;9.828;2022-08-02T14:24:45;1.38;;;1.27;;
31114;SDS011;17764;47.152;9.828;2022-08-02T14:27:11;1.90;;;1.38;;
31114;SDS011;17764;47.152;9.828;2022-08-02T14:29:37;2.38;;;1.40;;
31114;SDS011;17764;47.152;9.828;2022-08-02T14:32:04;2.90;;;1.40;;
31114;SDS011;17764;47.152;9.828;2022-08-02T14:34:30;2.75;;;1.35;;
31114;SDS011;17764;47.152;9.828;2022-08-02T14:36:56;2.22;;;1.35;;
31114;SDS011;17764;47.152;9.828;2022-08-02T14:39:22;1.48;;;1.27;;
31114;SDS011;17764;47.152;9.828;2022-08-02T14:41:48;2.42;;;1.50;;
31114;SDS011;17764;47.152;9.828;2022-08-02T14:44:14;2.10;;;1.58;;
31114;SDS011;17764;47.152;9.828;2022-08-02T14:46:40;2.20;;;1.60;;
31114;SDS011;17764;47.152;9.828;2022-08-02T14:49:07;2.90;;;1.52;;
31114;SDS011;17764;47.152;9.828;2022-08-02T14:51:34;2.28;;;1.50;;
31114;SDS011;17764;47.152;9.828;2022-08-02T14:54:02;2.50;;;1.70;;
31114;SDS011;17764;47.152;9.828;2022-08-02T14:56:29;2.13;;;1.52;;
31114;SDS011;17764;47.152;9.828;2022-08-02T15:01:23;3.08;;;1.42;;
31114;SDS011;17764;47.152;9.828;2022-08-02T15:03:50;1.98;;;1.75;;
31114;SDS011;17764;47.152;9.828;2022-08-02T15:06:16;2.38;;;1.35;;
31114;SDS011;17764;47.152;9.828;2022-08-02T15:08:42;2.72;;;1.70;;
31114;SDS011;17764;47.152;9.828;2022-08-02T15:11:08;2.53;;;1.50;;
31114;SDS011;17764;47.152;9.828;2022-08-02T15:13:34;2.15;;;1.70;;
31114;SDS011;17764;47.152;9.828;2022-08-02T15:16:00;1.77;;;1.30;;
31114;SDS011;17764;47.152;9.828;2022-08-02T15:18:25;1.70;;;1.30;;
31114;SDS011;17764;47.152;9.828;2022-08-02T15:20:52;3.25;;;1.60;;
31114;SDS011;17764;47.152;9.828;2022-08-02T15:23:18;1.95;;;1.40;;
31114;SDS011;17764;47.152;9.828;2022-08-02T15:25:43;1.88;;;1.63;;
31114;SDS011;17764;47.152;9.828;2022-08-02T15:28:09;1.98;;;1.55;;
31114;SDS011;17764;47.152;9.828;2022-08-02T15:30:35;2.28;;;1.40;;
31114;SDS011;17764;47.152;9.828;2022-08-02T15:33:02;1.63;;;1.45;;
31114;SDS011;17764;47.152;9.828;2022-08-02T15:35:28;2.15;;;1.33;;